Aviation Digital Data Service (ADDS)

Output produced by TAFs form (1100 UTC 23 October 2014)
found at http://aviationweather.gov/adds/tafs/
 
KTCC 230522Z 2306/2406 20007KT P6SM SKC 
     FM230900 26007KT P6SM SCT025 
     TEMPO 2311/2314 4SM BR BKN025 
     FM231600 25006KT P6SM SKC